Time;durP1;ratioP1;P1;durP2;ratioP2;P2;SDS_P1;SDS_P2;PMS_P1;PMS_P2;Temp;Humidity;BMP_temperature;BMP_pressure;BME280_temperature;BME280_humidity;BME280_pressure;Samples;Min_cycle;Max_cycle;Signal;HPM_P1;HPM_P2
2023/03/26 00:01:51;;;;;;;;;;;7.50;99.90;;;;;;5071502;28;19924;-62
2023/03/26 00:04:24;;;;;;;;;;;7.50;99.90;;;;;;5053151;28;19924;-62
2023/03/26 00:06:56;;;;;;;;;;;7.50;99.90;;;;;;5069854;28;19928;-62
2023/03/26 00:09:22;;;;;;;;;;;7.50;99.90;;;;;;5063779;28;19952;-62
2023/03/26 00:11:55;;;;;;;;;;;7.50;99.90;;;;;;5068256;28;19921;-63
2023/03/26 00:14:28;;;;;;;;;;;7.50;99.90;;;;;;5064517;28;19985;-62
2023/03/26 00:16:54;;;;;;;;;;;7.40;99.90;;;;;;5064948;28;19924;-62
2023/03/26 00:19:26;;;;;;;;;;;7.40;99.90;;;;;;5063705;28;19948;-62
2023/03/26 00:21:59;;;;;;;;;;;7.40;99.90;;;;;;5059238;28;19920;-62
2023/03/26 00:24:30;;;;;;;;;;;7.40;99.90;;;;;;5054815;28;19920;-62
2023/03/26 00:27:03;;;;;;;;;;;7.30;99.90;;;;;;5070655;28;19943;-62
2023/03/26 00:29:34;;;;;;;;;;;7.30;99.90;;;;;;5053462;28;19925;-62
2023/03/26 00:32:01;;;;;;;;;;;7.30;99.90;;;;;;5067977;28;20380;-62
2023/03/26 00:34:28;;;;;;;;;;;7.40;99.90;;;;;;5064763;28;20385;-62
2023/03/26 00:37:01;;;;;;;;;;;7.40;99.90;;;;;;5060655;28;19921;-62
2023/03/26 00:39:36;;;;;;;;;;;7.40;99.90;;;;;;5065323;28;19924;-62
2023/03/26 00:42:07;;;;;;;;;;;7.40;99.90;;;;;;5061231;28;20263;-62
2023/03/26 00:44:39;;;;;;;;;;;7.40;99.90;;;;;;5053239;28;19924;-62
2023/03/26 00:47:06;;;;;;;;;;;7.40;99.90;;;;;;5053540;28;19931;-62
2023/03/26 00:49:38;;;;;;;;;;;7.40;99.90;;;;;;5068997;28;19932;-62
2023/03/26 00:52:09;;;;;;;;;;;7.30;99.90;;;;;;5054517;28;20005;-62
2023/03/26 00:54:42;;;;;;;;;;;7.30;99.90;;;;;;5065133;28;19928;-62
2023/03/26 00:57:13;;;;;;;;;;;7.20;99.90;;;;;;5069350;28;19924;-62
2023/03/26 00:59:41;;;;;;;;;;;7.20;99.90;;;;;;5066921;28;19924;-62
2023/03/26 01:02:10;;;;;;;;;;;7.20;99.90;;;;;;5063628;28;19924;-62
2023/03/26 01:04:46;;;;;;;;;;;7.20;99.90;;;;;;5063631;28;19924;-62
2023/03/26 01:07:21;;;;;;;;;;;7.10;99.90;;;;;;5062330;28;19927;-62
2023/03/26 01:09:54;;;;;;;;;;;7.10;99.90;;;;;;5055660;28;19925;-62
2023/03/26 01:12:30;;;;;;;;;;;7.00;99.90;;;;;;5065879;28;19920;-62
2023/03/26 01:15:03;;;;;;;;;;;7.00;99.90;;;;;;5067786;28;19958;-62
2023/03/26 01:17:36;;;;;;;;;;;6.90;99.90;;;;;;5066229;28;19986;-62
2023/03/26 01:20:13;;;;;;;;;;;6.90;99.90;;;;;;5044616;28;19990;-62
2023/03/26 01:22:48;;;;;;;;;;;6.80;99.90;;;;;;5064489;28;20016;-62
2023/03/26 01:25:21;;;;;;;;;;;6.80;99.90;;;;;;5062618;28;19929;-62
2023/03/26 01:27:54;;;;;;;;;;;6.70;99.90;;;;;;5034480;28;19921;-62
2023/03/26 01:30:41;;;;;;;;;;;6.70;99.90;;;;;;5048917;28;20466;-62
2023/03/26 01:33:28;;;;;;;;;;;6.60;99.90;;;;;;5067526;28;20507;-62
2023/03/26 01:36:04;;;;;;;;;;;6.50;99.90;;;;;;5051413;28;20393;-62
2023/03/26 01:38:45;;;;;;;;;;;6.50;99.90;;;;;;5051983;28;19974;-62
2023/03/26 01:41:28;;;;;;;;;;;6.40;99.90;;;;;;5066154;28;19932;-62
2023/03/26 01:44:03;;;;;;;;;;;6.40;99.90;;;;;;5063902;28;20446;-62
2023/03/26 01:46:35;;;;;;;;;;;6.40;99.90;;;;;;5035756;28;19990;-62
2023/03/26 01:49:11;;;;;;;;;;;6.40;99.90;;;;;;5035799;28;20446;-62
2023/03/26 01:51:43;;;;;;;;;;;6.40;99.90;;;;;;5052405;28;19925;-62
2023/03/26 01:54:16;;;;;;;;;;;6.50;99.90;;;;;;5069017;28;19924;-62
2023/03/26 01:57:07;;;;;;;;;;;6.50;99.90;;;;;;5070031;28;20383;-62
2023/03/26 01:59:39;;;;;;;;;;;6.50;99.90;;;;;;5053801;28;19925;-62
2023/03/26 02:02:20;;;;;;;;;;;6.50;99.90;;;;;;5066586;28;19920;-62
2023/03/26 02:04:56;;;;;;;;;;;6.50;99.90;;;;;;5070082;28;19927;-62
2023/03/26 02:07:33;;;;;;;;;;;6.50;99.90;;;;;;5055603;28;19920;-62
2023/03/26 02:10:16;;;;;;;;;;;6.50;99.90;;;;;;5067417;28;19921;-62
2023/03/26 02:12:48;;;;;;;;;;;6.50;99.90;;;;;;5055934;28;19921;-62
2023/03/26 02:15:20;;;;;;;;;;;6.50;99.90;;;;;;5068834;28;19924;-62
2023/03/26 02:17:52;;;;;;;;;;;6.40;99.90;;;;;;5072643;28;20266;-62
2023/03/26 02:20:29;;;;;;;;;;;6.40;99.90;;;;;;5054339;28;19925;-62
2023/03/26 02:23:00;;;;;;;;;;;6.40;99.90;;;;;;5070538;28;19924;-62
2023/03/26 02:25:34;;;;;;;;;;;6.40;99.90;;;;;;5054749;28;19924;-62
2023/03/26 02:28:06;;;;;;;;;;;6.40;99.90;;;;;;5054810;28;19974;-62
2023/03/26 02:30:38;;;;;;;;;;;6.40;99.90;;;;;;5068458;28;19965;-62
2023/03/26 02:33:14;;;;;;;;;;;6.30;99.90;;;;;;5052392;28;19924;-62
2023/03/26 02:35:45;;;;;;;;;;;6.30;99.90;;;;;;5066232;28;19982;-62
2023/03/26 02:38:18;;;;;;;;;;;6.20;99.90;;;;;;5065561;28;19925;-62
2023/03/26 02:40:49;;;;;;;;;;;6.20;99.90;;;;;;5070964;28;19924;-62
2023/03/26 02:43:28;;;;;;;;;;;6.20;99.90;;;;;;5054721;28;19928;-62
2023/03/26 02:46:01;;;;;;;;;;;6.20;99.90;;;;;;5055512;28;19924;-62
2023/03/26 02:48:52;;;;;;;;;;;6.10;99.90;;;;;;5069636;28;20022;-63
2023/03/26 02:51:24;;;;;;;;;;;6.10;99.90;;;;;;5053886;28;19928;-62
2023/03/26 02:54:03;;;;;;;;;;;6.10;99.90;;;;;;5054775;28;19928;-62
2023/03/26 02:56:32;;;;;;;;;;;6.10;99.90;;;;;;5070466;28;19967;-62
2023/03/26 02:59:22;;;;;;;;;;;6.00;99.90;;;;;;5063597;28;19924;-62
2023/03/26 03:02:03;;;;;;;;;;;6.10;99.90;;;;;;5070175;28;20755;-62
2023/03/26 03:04:31;;;;;;;;;;;6.10;99.90;;;;;;5054725;28;20448;-62
2023/03/26 03:07:03;;;;;;;;;;;6.00;99.90;;;;;;5064690;28;19982;-62
2023/03/26 03:09:35;;;;;;;;;;;6.00;99.90;;;;;;5054736;28;19974;-62
2023/03/26 03:12:41;;;;;;;;;;;6.00;99.90;;;;;;5067115;28;20561;-62
2023/03/26 03:15:13;;;;;;;;;;;6.00;99.90;;;;;;5052257;28;19920;-62
2023/03/26 03:17:40;;;;;;;;;;;6.00;99.90;;;;;;5061448;28;19930;-62
2023/03/26 03:20:12;;;;;;;;;;;6.00;99.90;;;;;;5064686;28;19928;-63
2023/03/26 03:22:44;;;;;;;;;;;6.00;99.90;;;;;;5055141;28;20019;-63
2023/03/26 03:25:16;;;;;;;;;;;6.10;99.90;;;;;;5058988;28;20003;-62
2023/03/26 03:27:49;;;;;;;;;;;6.10;99.90;;;;;;5071657;28;19925;-62
2023/03/26 03:30:21;;;;;;;;;;;6.00;99.90;;;;;;5060604;28;19920;-62
2023/03/26 03:32:52;;;;;;;;;;;6.10;99.90;;;;;;5071214;28;19987;-62
2023/03/26 03:35:29;;;;;;;;;;;6.00;99.90;;;;;;5052746;28;20007;-62
2023/03/26 03:38:01;;;;;;;;;;;6.00;99.90;;;;;;5070036;28;19928;-62
2023/03/26 03:40:42;;;;;;;;;;;6.00;99.90;;;;;;5049389;28;20311;-62
2023/03/26 03:43:14;;;;;;;;;;;6.00;99.90;;;;;;5065340;28;20475;-62
2023/03/26 03:46:00;;;;;;;;;;;6.10;99.90;;;;;;5066540;28;19921;-62
2023/03/26 03:48:39;;;;;;;;;;;6.00;99.90;;;;;;5055129;28;19927;-62
2023/03/26 03:51:11;;;;;;;;;;;6.10;99.90;;;;;;5063677;28;19943;-63
2023/03/26 03:53:54;;;;;;;;;;;6.10;99.90;;;;;;5052471;28;20397;-62
2023/03/26 03:56:49;;;;;;;;;;;6.10;99.90;;;;;;5057842;28;20338;-62
2023/03/26 03:59:35;;;;;;;;;;;6.10;99.90;;;;;;5068192;28;19928;-62
2023/03/26 04:02:08;;;;;;;;;;;6.20;99.90;;;;;;5043467;28;19931;-62
2023/03/26 04:04:49;;;;;;;;;;;6.10;99.90;;;;;;5047568;28;20372;-62
2023/03/26 04:07:20;;;;;;;;;;;6.20;99.90;;;;;;5052435;28;19928;-62
2023/03/26 04:09:56;;;;;;;;;;;6.20;99.90;;;;;;5068477;28;19952;-62
2023/03/26 04:12:45;;;;;;;;;;;6.20;99.90;;;;;;5041929;28;19967;-62
2023/03/26 04:15:20;;;;;;;;;;;6.20;99.90;;;;;;5050113;28;19924;-62
2023/03/26 04:17:52;;;;;;;;;;;6.20;99.90;;;;;;5056817;28;20018;-62
2023/03/26 04:20:19;;;;;;;;;;;6.20;99.90;;;;;;5052318;28;19928;-63
2023/03/26 04:22:51;;;;;;;;;;;6.20;99.90;;;;;;5053368;28;19966;-62
2023/03/26 04:25:29;;;;;;;;;;;6.30;99.90;;;;;;5066819;28;20403;-62
2023/03/26 04:28:07;;;;;;;;;;;6.30;99.90;;;;;;5051783;28;19928;-62
2023/03/26 04:30:53;;;;;;;;;;;6.30;99.90;;;;;;5052380;28;19924;-62
2023/03/26 04:33:40;;;;;;;;;;;6.30;99.90;;;;;;5053709;28;19924;-62
2023/03/26 04:36:14;;;;;;;;;;;6.30;99.90;;;;;;5053958;28;19935;-62
2023/03/26 04:38:43;;;;;;;;;;;6.30;99.90;;;;;;5063298;28;19947;-62
2023/03/26 04:41:17;;;;;;;;;;;6.30;99.90;;;;;;5066235;28;19927;-62
2023/03/26 04:43:54;;;;;;;;;;;6.30;99.90;;;;;;5053148;28;20406;-62
2023/03/26 04:46:45;;;;;;;;;;;6.30;99.90;;;;;;5050294;28;20403;-62
2023/03/26 04:49:18;;;;;;;;;;;6.20;99.90;;;;;;5065515;28;19927;-62
2023/03/26 04:51:50;;;;;;;;;;;6.20;99.90;;;;;;5063124;28;19921;-62
2023/03/26 04:54:57;;;;;;;;;;;6.20;99.90;;;;;;5066101;28;20105;-62
2023/03/26 04:57:33;;;;;;;;;;;6.20;99.90;;;;;;5052233;28;20007;-63
2023/03/26 05:00:14;;;;;;;;;;;6.10;99.90;;;;;;5069475;28;19935;-62
2023/03/26 05:02:58;;;;;;;;;;;6.00;99.90;;;;;;5051728;28;19943;-62
2023/03/26 05:05:29;;;;;;;;;;;6.00;99.90;;;;;;5052866;28;19920;-62
2023/03/26 05:08:03;;;;;;;;;;;6.00;99.90;;;;;;5071127;28;19929;-62
2023/03/26 05:10:35;;;;;;;;;;;6.00;99.90;;;;;;5066512;28;19931;-62
2023/03/26 05:13:12;;;;;;;;;;;6.10;99.90;;;;;;5050233;28;19920;-62
2023/03/26 05:15:48;;;;;;;;;;;6.10;99.90;;;;;;5053927;28;19947;-64
2023/03/26 05:18:34;;;;;;;;;;;6.10;99.90;;;;;;5055117;28;20304;-63
2023/03/26 05:21:06;;;;;;;;;;;6.10;99.90;;;;;;5067503;28;19924;-63
2023/03/26 05:23:38;;;;;;;;;;;6.10;99.90;;;;;;5069328;28;19921;-62
2023/03/26 05:26:17;;;;;;;;;;;6.10;99.90;;;;;;5050060;28;20289;-63
2023/03/26 05:28:49;;;;;;;;;;;6.10;99.90;;;;;;5069084;28;20277;-63
2023/03/26 05:31:26;;;;;;;;;;;6.10;99.90;;;;;;5066441;28;20461;-63
2023/03/26 05:33:59;;;;;;;;;;;6.10;99.90;;;;;;5052578;28;19998;-63
2023/03/26 05:36:27;;;;;;;;;;;6.10;99.90;;;;;;5034129;28;19931;-62
2023/03/26 05:39:06;;;;;;;;;;;6.10;99.90;;;;;;5061493;28;19921;-63
2023/03/26 05:42:06;;;;;;;;;;;6.10;99.90;;;;;;5068500;28;20332;-62
2023/03/26 05:45:00;;;;;;;;;;;6.20;99.90;;;;;;5053808;28;19971;-63
2023/03/26 05:47:29;;;;;;;;;;;6.20;99.90;;;;;;5053475;28;19925;-63
2023/03/26 05:50:01;;;;;;;;;;;6.30;99.90;;;;;;5053259;28;20288;-62
2023/03/26 05:52:36;;;;;;;;;;;6.30;99.90;;;;;;5052506;28;19928;-63
2023/03/26 05:55:26;;;;;;;;;;;6.30;99.90;;;;;;5067404;28;19925;-62
2023/03/26 05:58:21;;;;;;;;;;;6.40;99.90;;;;;;5058778;28;19929;-63
2023/03/26 06:01:25;;;;;;;;;;;6.50;99.90;;;;;;4995921;28;19928;-62
2023/03/26 06:04:16;;;;;;;;;;;6.50;99.90;;;;;;5050877;28;20052;-62
2023/03/26 06:07:08;;;;;;;;;;;6.50;99.90;;;;;;5058372;28;20211;-63
2023/03/26 06:09:44;;;;;;;;;;;6.50;99.90;;;;;;5049417;28;19932;-63
2023/03/26 06:12:16;;;;;;;;;;;6.50;99.90;;;;;;5051069;28;20399;-63
2023/03/26 06:14:48;;;;;;;;;;;6.50;99.90;;;;;;5053475;28;19968;-63
2023/03/26 06:17:33;;;;;;;;;;;6.60;99.90;;;;;;5050796;28;19931;-63
2023/03/26 06:20:24;;;;;;;;;;;6.60;99.90;;;;;;5062919;28;19936;-63
2023/03/26 06:22:56;;;;;;;;;;;6.60;99.90;;;;;;5047900;28;19927;-63
2023/03/26 06:25:43;;;;;;;;;;;6.60;99.90;;;;;;5063102;28;20070;-63
2023/03/26 06:28:40;;;;;;;;;;;6.50;99.90;;;;;;5067041;28;19987;-63
2023/03/26 06:31:40;;;;;;;;;;;6.50;99.90;;;;;;5052881;28;19920;-63
2023/03/26 06:34:18;;;;;;;;;;;6.50;99.90;;;;;;5047988;28;19924;-63
2023/03/26 06:36:51;;;;;;;;;;;6.50;99.90;;;;;;5067572;28;19925;-63
2023/03/26 06:39:23;;;;;;;;;;;6.40;99.90;;;;;;5065568;28;20015;-63
2023/03/26 06:42:08;;;;;;;;;;;6.40;99.90;;;;;;5058329;28;19924;-63
2023/03/26 06:45:07;;;;;;;;;;;6.40;99.90;;;;;;5061920;28;19924;-63
2023/03/26 06:47:52;;;;;;;;;;;6.50;99.90;;;;;;5065498;28;19978;-63
2023/03/26 06:50:48;;;;;;;;;;;6.40;99.90;;;;;;5052000;28;19960;-63
2023/03/26 06:53:30;;;;;;;;;;;6.40;99.90;;;;;;5071923;28;20007;-63
2023/03/26 06:56:25;;;;;;;;;;;6.30;99.90;;;;;;5043788;28;19932;-63
2023/03/26 06:59:10;;;;;;;;;;;6.30;99.90;;;;;;5051962;28;19924;-63
2023/03/26 07:02:03;;;;;;;;;;;6.20;99.90;;;;;;5068762;28;20057;-63
2023/03/26 07:04:53;;;;;;;;;;;6.20;99.90;;;;;;5055876;28;19928;-63
2023/03/26 07:07:56;;;;;;;;;;;6.20;99.90;;;;;;5038241;28;19920;-63
2023/03/26 07:10:54;;;;;;;;;;;6.30;99.90;;;;;;5066066;28;20396;-63
2023/03/26 07:13:46;;;;;;;;;;;6.30;99.90;;;;;;5070294;28;19920;-63
2023/03/26 07:16:36;;;;;;;;;;;6.40;99.90;;;;;;5072547;28;20017;-63
2023/03/26 07:19:31;;;;;;;;;;;6.40;99.90;;;;;;5048111;28;19970;-64
2023/03/26 07:22:04;;;;;;;;;;;6.40;99.90;;;;;;5054358;28;19928;-64
2023/03/26 07:25:09;;;;;;;;;;;6.40;99.90;;;;;;5037417;28;19946;-63
2023/03/26 07:27:51;;;;;;;;;;;6.40;99.90;;;;;;5069642;28;19921;-64
2023/03/26 07:30:52;;;;;;;;;;;6.40;99.90;;;;;;5041984;28;19978;-64
2023/03/26 07:34:00;;;;;;;;;;;6.50;99.90;;;;;;5038396;28;19920;-64
2023/03/26 07:36:42;;;;;;;;;;;6.50;99.90;;;;;;5071216;28;19920;-64
2023/03/26 07:39:41;;;;;;;;;;;6.50;99.90;;;;;;5067647;28;19920;-64
2023/03/26 07:42:36;;;;;;;;;;;6.50;99.90;;;;;;5053986;28;19927;-64
2023/03/26 07:45:27;;;;;;;;;;;6.50;99.90;;;;;;5069479;28;20071;-64
2023/03/26 07:48:24;;;;;;;;;;;6.50;99.90;;;;;;5059040;28;19920;-64
2023/03/26 07:51:10;;;;;;;;;;;6.50;99.90;;;;;;5041081;28;19932;-64
2023/03/26 07:53:51;;;;;;;;;;;6.60;99.90;;;;;;5063377;28;20463;-64
2023/03/26 07:57:08;;;;;;;;;;;6.50;99.90;;;;;;5069173;28;19974;-63
2023/03/26 08:00:10;;;;;;;;;;;6.60;99.90;;;;;;5041728;28;19952;-64
2023/03/26 08:03:01;;;;;;;;;;;6.50;99.90;;;;;;5062800;28;19935;-64
2023/03/26 08:06:06;;;;;;;;;;;6.60;99.90;;;;;;5073058;28;19931;-64
2023/03/26 08:09:08;;;;;;;;;;;6.70;99.90;;;;;;5070335;28;20027;-64
2023/03/26 08:12:25;;;;;;;;;;;6.70;99.90;;;;;;5052859;28;19920;-64
2023/03/26 08:15:20;;;;;;;;;;;6.70;99.90;;;;;;5068796;28;19920;-64
2023/03/26 08:18:06;;;;;;;;;;;6.70;99.90;;;;;;5036517;28;19993;-63
2023/03/26 08:20:46;;;;;;;;;;;6.70;99.90;;;;;;5039617;28;19924;-64
2023/03/26 08:23:39;;;;;;;;;;;6.70;99.90;;;;;;5068367;28;19920;-63
2023/03/26 08:26:18;;;;;;;;;;;6.70;99.90;;;;;;5062817;28;19931;-63
2023/03/26 08:28:59;;;;;;;;;;;6.70;99.90;;;;;;5063249;28;19925;-64
2023/03/26 08:31:37;;;;;;;;;;;6.70;99.90;;;;;;5057959;28;20033;-63
2023/03/26 08:34:05;;;;;;;;;;;6.70;99.90;;;;;;5064157;28;20376;-63
2023/03/26 08:36:36;;;;;;;;;;;6.60;99.90;;;;;;5061740;28;20316;-63
2023/03/26 08:39:08;;;;;;;;;;;6.60;99.90;;;;;;5051558;28;19946;-63
2023/03/26 08:41:59;;;;;;;;;;;6.60;99.90;;;;;;5066830;28;19932;-64
2023/03/26 08:44:54;;;;;;;;;;;6.60;99.90;;;;;;5068701;28;19925;-64
2023/03/26 08:47:21;;;;;;;;;;;6.60;99.90;;;;;;5063211;28;19992;-63
2023/03/26 08:49:52;;;;;;;;;;;6.60;99.90;;;;;;5061921;28;19930;-64
2023/03/26 08:52:43;;;;;;;;;;;6.60;99.90;;;;;;5052835;28;20309;-63
2023/03/26 08:55:17;;;;;;;;;;;6.60;99.90;;;;;;5069702;28;19966;-64
2023/03/26 08:58:01;;;;;;;;;;;6.60;99.90;;;;;;5070576;28;20347;-64
2023/03/26 09:00:36;;;;;;;;;;;6.60;99.90;;;;;;5052396;28;19955;-63
2023/03/26 09:03:26;;;;;;;;;;;6.60;99.90;;;;;;5050056;28;19943;-63
2023/03/26 09:06:17;;;;;;;;;;;6.60;99.90;;;;;;5065257;28;19928;-63
2023/03/26 09:08:49;;;;;;;;;;;6.50;99.90;;;;;;5058909;28;19921;-63
2023/03/26 09:11:27;;;;;;;;;;;6.60;99.90;;;;;;5067830;28;19920;-64
2023/03/26 09:14:18;;;;;;;;;;;6.50;99.90;;;;;;5051079;28;19924;-63
2023/03/26 09:17:09;;;;;;;;;;;6.50;99.90;;;;;;5067560;28;19928;-62
2023/03/26 09:19:53;;;;;;;;;;;6.50;99.90;;;;;;5062881;28;19920;-63
2023/03/26 09:22:34;;;;;;;;;;;6.50;99.90;;;;;;5066741;28;19978;-64
2023/03/26 09:25:05;;;;;;;;;;;6.50;99.90;;;;;;5064174;28;20392;-64
2023/03/26 09:27:32;;;;;;;;;;;6.50;99.90;;;;;;5047014;28;19920;-64
2023/03/26 09:30:16;;;;;;;;;;;6.50;99.90;;;;;;5064973;28;19924;-63
2023/03/26 09:33:08;;;;;;;;;;;6.50;99.90;;;;;;5045502;28;19924;-64
2023/03/26 09:35:53;;;;;;;;;;;6.60;99.90;;;;;;5065122;28;19921;-68
2023/03/26 09:38:33;;;;;;;;;;;6.60;99.90;;;;;;5071422;28;20493;-65
2023/03/26 09:41:00;;;;;;;;;;;6.60;99.90;;;;;;5054593;28;20015;-64
2023/03/26 09:43:50;;;;;;;;;;;6.70;99.90;;;;;;5061154;28;19989;-63
2023/03/26 09:46:34;;;;;;;;;;;6.70;99.90;;;;;;5065820;28;20397;-64
2023/03/26 09:49:11;;;;;;;;;;;6.80;99.90;;;;;;5048394;28;19924;-64
2023/03/26 09:51:49;;;;;;;;;;;6.90;99.90;;;;;;5031204;28;19921;-64
2023/03/26 09:54:18;;;;;;;;;;;7.00;99.90;;;;;;5057820;28;20446;-64
2023/03/26 09:57:02;;;;;;;;;;;7.00;99.90;;;;;;5061708;28;19920;-65
2023/03/26 09:59:52;;;;;;;;;;;7.00;99.90;;;;;;5044712;28;19964;-64
2023/03/26 10:02:41;;;;;;;;;;;7.10;99.90;;;;;;5072649;28;19920;-63
2023/03/26 10:05:26;;;;;;;;;;;7.10;99.90;;;;;;5062403;28;19935;-64
2023/03/26 10:08:19;;;;;;;;;;;7.20;99.90;;;;;;5063121;28;19928;-64
2023/03/26 10:10:46;;;;;;;;;;;7.10;99.90;;;;;;5060182;28;19921;-63
2023/03/26 10:13:32;;;;;;;;;;;7.20;99.90;;;;;;5063204;28;19982;-64
2023/03/26 10:16:13;;;;;;;;;;;7.20;99.90;;;;;;5060193;28;20503;-64
2023/03/26 10:18:49;;;;;;;;;;;7.20;99.90;;;;;;5044112;28;19924;-65
2023/03/26 10:21:26;;;;;;;;;;;7.20;99.90;;;;;;5063656;28;20358;-65
2023/03/26 10:24:11;;;;;;;;;;;7.20;99.90;;;;;;5068255;28;19927;-64
2023/03/26 10:27:03;;;;;;;;;;;7.30;99.90;;;;;;5055285;28;19924;-64
2023/03/26 10:29:49;;;;;;;;;;;7.20;99.90;;;;;;5065740;28;19924;-64
2023/03/26 10:32:43;;;;;;;;;;;7.30;99.90;;;;;;5062676;28;20001;-64
2023/03/26 10:35:20;;;;;;;;;;;7.30;99.90;;;;;;5063382;28;19928;-64
2023/03/26 10:38:06;;;;;;;;;;;7.40;99.90;;;;;;5051454;28;19921;-64
2023/03/26 10:40:47;;;;;;;;;;;7.40;99.90;;;;;;5047100;28;19925;-64
2023/03/26 10:43:22;;;;;;;;;;;7.50;99.90;;;;;;5066887;28;19947;-64
2023/03/26 10:45:58;;;;;;;;;;;7.60;99.90;;;;;;5054357;28;19924;-64
2023/03/26 10:48:53;;;;;;;;;;;7.70;99.90;;;;;;5072286;28;19943;-64
2023/03/26 10:51:47;;;;;;;;;;;7.70;99.90;;;;;;5058048;28;19964;-64
2023/03/26 10:54:21;;;;;;;;;;;7.70;99.90;;;;;;5049125;28;20300;-64
2023/03/26 10:56:49;;;;;;;;;;;7.60;99.90;;;;;;5070504;28;19935;-64
2023/03/26 10:59:24;;;;;;;;;;;7.70;99.90;;;;;;5071682;28;20328;-63
2023/03/26 11:02:16;;;;;;;;;;;7.70;99.90;;;;;;5061440;28;20311;-64
2023/03/26 11:05:02;;;;;;;;;;;7.70;99.90;;;;;;5069725;28;19971;-65
2023/03/26 11:07:38;;;;;;;;;;;7.70;99.90;;;;;;5054185;28;19978;-65
2023/03/26 11:10:39;;;;;;;;;;;7.70;99.90;;;;;;5055161;28;19928;-64
2023/03/26 11:13:34;;;;;;;;;;;7.70;99.90;;;;;;5054729;28;19935;-66
2023/03/26 11:16:18;;;;;;;;;;;7.80;99.90;;;;;;5064671;28;19932;-64
2023/03/26 11:19:03;;;;;;;;;;;7.80;99.90;;;;;;5065804;28;20331;-64
2023/03/26 11:21:51;;;;;;;;;;;7.90;99.90;;;;;;5067474;28;20355;-64
2023/03/26 11:24:22;;;;;;;;;;;7.90;99.90;;;;;;5065826;28;19986;-64
2023/03/26 11:26:57;;;;;;;;;;;8.00;99.90;;;;;;5065413;28;19928;-64
2023/03/26 11:29:35;;;;;;;;;;;8.20;99.90;;;;;;5050998;28;20462;-64
2023/03/26 11:32:16;;;;;;;;;;;8.40;99.90;;;;;;5049191;28;20465;-64
2023/03/26 11:34:55;;;;;;;;;;;8.60;99.90;;;;;;5062722;28;20006;-63
2023/03/26 11:37:37;;;;;;;;;;;8.90;99.90;;;;;;5049296;28;20300;-63
2023/03/26 11:40:13;;;;;;;;;;;8.90;99.90;;;;;;5063613;28;19924;-64
2023/03/26 11:42:45;;;;;;;;;;;8.90;99.90;;;;;;5049664;28;19931;-64
2023/03/26 11:45:22;;;;;;;;;;;9.00;99.90;;;;;;5051392;28;20008;-64
2023/03/26 11:47:58;;;;;;;;;;;9.10;99.90;;;;;;5062575;28;19920;-63
2023/03/26 11:50:26;;;;;;;;;;;9.30;99.90;;;;;;5065050;28;19920;-63
2023/03/26 11:52:56;;;;;;;;;;;9.30;99.90;;;;;;5055829;28;19927;-64
2023/03/26 11:55:23;;;;;;;;;;;9.30;99.90;;;;;;5068155;28;20019;-63
2023/03/26 11:57:58;;;;;;;;;;;9.40;99.90;;;;;;5035480;28;20308;-63
2023/03/26 12:00:30;;;;;;;;;;;9.50;99.90;;;;;;5065499;28;20008;-63
2023/03/26 12:02:57;;;;;;;;;;;9.40;99.90;;;;;;5066747;28;20074;-64
2023/03/26 12:05:35;;;;;;;;;;;9.40;99.90;;;;;;5054213;28;19924;-63
2023/03/26 12:08:30;;;;;;;;;;;9.40;99.90;;;;;;5043875;28;19928;-63
2023/03/26 12:11:07;;;;;;;;;;;9.40;99.90;;;;;;5027799;28;19935;-63
2023/03/26 12:13:59;;;;;;;;;;;9.30;99.90;;;;;;5036167;28;19920;-63
2023/03/26 12:16:31;;;;;;;;;;;9.20;99.90;;;;;;5067142;28;20293;-63
2023/03/26 12:19:05;;;;;;;;;;;9.30;99.90;;;;;;5050911;28;19927;-64
2023/03/26 12:21:46;;;;;;;;;;;9.30;99.90;;;;;;5050205;28;19921;-63
2023/03/26 12:24:28;;;;;;;;;;;9.30;99.90;;;;;;5055053;28;19993;-63
2023/03/26 12:26:56;;;;;;;;;;;9.30;99.90;;;;;;5070964;28;19920;-64
2023/03/26 12:29:33;;;;;;;;;;;9.30;99.90;;;;;;5070616;28;19974;-63
2023/03/26 12:32:13;;;;;;;;;;;9.30;99.90;;;;;;5069039;28;19973;-63
2023/03/26 12:34:46;;;;;;;;;;;9.30;99.90;;;;;;5053282;28;19974;-64
2023/03/26 12:37:32;;;;;;;;;;;9.30;99.90;;;;;;5045499;28;19925;-64
2023/03/26 12:40:11;;;;;;;;;;;9.30;99.90;;;;;;5065782;28;19928;-64
2023/03/26 12:42:49;;;;;;;;;;;9.20;99.90;;;;;;5034253;28;19927;-64
2023/03/26 12:45:26;;;;;;;;;;;9.20;99.90;;;;;;5049567;28;19970;-63
2023/03/26 12:47:59;;;;;;;;;;;9.10;99.90;;;;;;5049065;28;19927;-63
2023/03/26 12:50:55;;;;;;;;;;;9.10;99.90;;;;;;5049142;28;19925;-63
2023/03/26 12:53:36;;;;;;;;;;;9.10;99.90;;;;;;5064687;28;19921;-63
2023/03/26 12:56:08;;;;;;;;;;;9.00;99.90;;;;;;5070144;28;19924;-63
2023/03/26 12:58:36;;;;;;;;;;;8.90;99.90;;;;;;5062616;28;19924;-64
2023/03/26 13:01:21;;;;;;;;;;;8.60;99.90;;;;;;5065713;28;19924;-62
2023/03/26 13:04:05;;;;;;;;;;;7.40;99.90;;;;;;5062768;28;20401;-63
2023/03/26 13:06:49;;;;;;;;;;;6.30;99.90;;;;;;5071779;28;20392;-63
2023/03/26 13:09:26;;;;;;;;;;;5.80;99.90;;;;;;5066618;28;19983;-64
2023/03/26 13:11:59;;;;;;;;;;;5.50;99.90;;;;;;5071428;28;19951;-63
2023/03/26 13:14:33;;;;;;;;;;;5.40;99.90;;;;;;5066295;28;19928;-63
2023/03/26 13:17:20;;;;;;;;;;;5.50;99.90;;;;;;5066268;28;19994;-64
2023/03/26 13:19:47;;;;;;;;;;;5.70;99.90;;;;;;5063292;28;20011;-64
2023/03/26 13:22:34;;;;;;;;;;;5.80;99.90;;;;;;5066521;28;19928;-63
2023/03/26 13:25:19;;;;;;;;;;;6.00;99.90;;;;;;5035683;28;19920;-64
2023/03/26 13:27:54;;;;;;;;;;;6.30;99.90;;;;;;5041606;28;19927;-63
2023/03/26 13:30:48;;;;;;;;;;;6.50;99.90;;;;;;5067516;28;19920;-64
2023/03/26 13:33:33;;;;;;;;;;;6.70;99.90;;;;;;5057573;28;19925;-64
2023/03/26 13:36:08;;;;;;;;;;;6.90;99.90;;;;;;5056712;28;19920;-64
2023/03/26 13:38:40;;;;;;;;;;;7.00;99.90;;;;;;5051820;28;19928;-64
2023/03/26 13:41:11;;;;;;;;;;;7.20;99.90;;;;;;5066081;28;19924;-65
2023/03/26 13:43:57;;;;;;;;;;;7.40;99.90;;;;;;5067286;28;19924;-64
2023/03/26 13:46:29;;;;;;;;;;;7.50;99.90;;;;;;5061661;28;19952;-64
2023/03/26 13:49:04;;;;;;;;;;;7.70;99.90;;;;;;5049844;28;20320;-64
2023/03/26 13:51:41;;;;;;;;;;;7.80;99.90;;;;;;5060114;28;20720;-64
2023/03/26 13:54:12;;;;;;;;;;;7.90;99.90;;;;;;5068328;28;19927;-64
2023/03/26 13:56:53;;;;;;;;;;;8.10;99.90;;;;;;5047572;28;19920;-64
2023/03/26 13:59:24;;;;;;;;;;;8.30;99.90;;;;;;5061183;28;19920;-64
2023/03/26 14:02:00;;;;;;;;;;;8.40;99.90;;;;;;5067654;28;19928;-64
2023/03/26 14:04:35;;;;;;;;;;;8.60;99.90;;;;;;5067039;28;20454;-64
2023/03/26 14:07:07;;;;;;;;;;;8.80;99.90;;;;;;5067364;28;19924;-64
2023/03/26 14:09:43;;;;;;;;;;;8.90;99.90;;;;;;5068778;28;19922;-64
2023/03/26 14:12:22;;;;;;;;;;;9.00;99.90;;;;;;5069066;28;19920;-64
2023/03/26 14:14:57;;;;;;;;;;;9.10;99.90;;;;;;5067978;28;20443;-64
2023/03/26 14:17:33;;;;;;;;;;;9.30;99.90;;;;;;5069732;28;19927;-64
2023/03/26 14:20:05;;;;;;;;;;;9.60;99.90;;;;;;5066138;28;19920;-64
2023/03/26 14:22:40;;;;;;;;;;;9.80;99.90;;;;;;5067452;28;19920;-64
2023/03/26 14:25:44;;;;;;;;;;;9.90;99.90;;;;;;5068687;28;20019;-64
2023/03/26 14:28:22;;;;;;;;;;;9.80;99.90;;;;;;5046837;28;20419;-64
2023/03/26 14:30:57;;;;;;;;;;;9.70;99.90;;;;;;5069761;28;19924;-64
2023/03/26 14:33:47;;;;;;;;;;;9.70;99.90;;;;;;5067557;28;19926;-65
2023/03/26 14:36:29;;;;;;;;;;;9.70;99.90;;;;;;5068805;28;20002;-64
2023/03/26 14:39:07;;;;;;;;;;;9.70;99.90;;;;;;5070525;28;19974;-64
2023/03/26 14:41:49;;;;;;;;;;;9.70;99.90;;;;;;5066584;28;19950;-64
2023/03/26 14:44:29;;;;;;;;;;;9.70;99.90;;;;;;5065707;28;19935;-64
2023/03/26 14:47:14;;;;;;;;;;;9.70;99.90;;;;;;5065132;28;19920;-64
2023/03/26 14:49:50;;;;;;;;;;;9.70;99.90;;;;;;5052615;28;19982;-64
2023/03/26 14:52:22;;;;;;;;;;;9.60;99.90;;;;;;5067678;28;19920;-64
2023/03/26 14:54:56;;;;;;;;;;;9.60;99.90;;;;;;5066582;28;19924;-64
2023/03/26 14:57:44;;;;;;;;;;;9.70;99.90;;;;;;5067133;28;19948;-64
2023/03/26 15:00:14;;;;;;;;;;;9.70;99.90;;;;;;5067364;28;20396;-64
2023/03/26 15:02:58;;;;;;;;;;;9.70;99.90;;;;;;5054396;28;19946;-64
2023/03/26 15:05:44;;;;;;;;;;;9.70;99.90;;;;;;5068956;28;20409;-64
2023/03/26 15:08:26;;;;;;;;;;;9.80;99.90;;;;;;5067492;28;20369;-64
2023/03/26 15:11:23;;;;;;;;;;;9.80;99.90;;;;;;5051048;28;20407;-64
2023/03/26 15:14:00;;;;;;;;;;;9.80;99.90;;;;;;5068654;28;19969;-64
2023/03/26 15:16:43;;;;;;;;;;;10.00;99.90;;;;;;5052526;28;20320;-64
2023/03/26 15:19:24;;;;;;;;;;;10.00;99.90;;;;;;5068335;28;19928;-64
2023/03/26 15:22:11;;;;;;;;;;;10.10;99.90;;;;;;5071106;28;19920;-64
2023/03/26 15:24:53;;;;;;;;;;;10.20;99.90;;;;;;5070439;28;19924;-64
2023/03/26 15:27:41;;;;;;;;;;;10.20;99.90;;;;;;5055756;28;19920;-64
2023/03/26 15:30:31;;;;;;;;;;;10.20;99.90;;;;;;5071445;28;20277;-64
2023/03/26 15:33:25;;;;;;;;;;;10.30;99.90;;;;;;5069994;28;19920;-64
2023/03/26 15:36:10;;;;;;;;;;;10.30;99.90;;;;;;5057128;28;19927;-64
2023/03/26 15:38:47;;;;;;;;;;;10.30;99.90;;;;;;5070129;28;19925;-64
2023/03/26 15:41:18;;;;;;;;;;;10.20;99.90;;;;;;5047819;28;19920;-64
2023/03/26 15:43:58;;;;;;;;;;;10.10;99.90;;;;;;5071600;28;19971;-64